createdAt,value
2018-07-24T00:04:58.931Z,1009.1
2018-07-24T00:15:13.384Z,1009.1
2018-07-24T00:25:27.339Z,1009.1
2018-07-24T00:35:41.060Z,1009.1
2018-07-24T00:45:55.387Z,1009
2018-07-24T00:56:10.316Z,1008.9
2018-07-24T01:06:25.685Z,1008.9
2018-07-24T01:16:40.470Z,1008.8
2018-07-24T01:26:55.846Z,1008.9
2018-07-24T01:37:11.127Z,1008.8
2018-07-24T01:47:26.618Z,1008.8
2018-07-24T01:57:40.793Z,1008.9
2018-07-24T02:07:55.408Z,1008.8
2018-07-24T02:18:10.168Z,1008.8
2018-07-24T02:28:23.889Z,1008.8
2018-07-24T02:38:39.317Z,1008.8
2018-07-24T02:48:53.153Z,1008.7
2018-07-24T02:59:07.753Z,1008.7
2018-07-24T03:09:22.385Z,1008.7
2018-07-24T03:19:36.566Z,1008.7
2018-07-24T03:29:51.807Z,1008.7
2018-07-24T03:40:06.472Z,1008.8
2018-07-24T03:50:20.894Z,1008.8
2018-07-24T04:00:36.032Z,1008.9
2018-07-24T04:10:50.175Z,1008.9
2018-07-24T04:21:04.993Z,1008.9
2018-07-24T04:31:19.466Z,1008.9
2018-07-24T04:41:33.571Z,1008.9
2018-07-24T04:51:47.405Z,1008.9
2018-07-24T05:02:02.128Z,1008.9
2018-07-24T05:12:17.839Z,1008.9
2018-07-24T05:22:32.508Z,1008.9
2018-07-24T05:32:47.725Z,1008.9
2018-07-24T05:43:01.638Z,1008.9
2018-07-24T05:53:15.705Z,1008.9
2018-07-24T06:03:30.936Z,1008.9
2018-07-24T06:13:45.309Z,1008.9
2018-07-24T06:23:59.555Z,1009.1
2018-07-24T06:34:13.349Z,1009.1
2018-07-24T06:44:27.899Z,1009.1
2018-07-24T06:54:42.796Z,1009.1
2018-07-24T07:04:58.322Z,1009.1
2018-07-24T07:15:14.053Z,1009
2018-07-24T07:25:29.106Z,1009
2018-07-24T07:35:44.969Z,1009
2018-07-24T07:45:58.896Z,1008.9
2018-07-24T07:56:14.215Z,1008.9
2018-07-24T08:06:29.006Z,1008.9
2018-07-24T08:16:44.617Z,1008.9
2018-07-24T08:27:00.335Z,1008.9
2018-07-24T08:37:14.481Z,1008.9
2018-07-24T08:47:30.034Z,1008.9
2018-07-24T08:57:44.337Z,1008.8
2018-07-24T09:07:58.379Z,1008.7
2018-07-24T09:18:14.081Z,1008.7
2018-07-24T09:28:28.041Z,1008.8
2018-07-24T09:38:43.037Z,1008.8
2018-07-24T09:48:57.935Z,1008.7
2018-07-24T09:59:12.092Z,1008.7
2018-07-24T10:09:27.618Z,1008.6
2018-07-24T10:19:42.720Z,1008.6
2018-07-24T10:29:56.589Z,1008.5
2018-07-24T10:40:11.879Z,1008.4
2018-07-24T10:50:26.349Z,1008.3
2018-07-24T11:00:41.273Z,1008.1
2018-07-24T11:10:57.108Z,1008.1
2018-07-24T11:21:12.984Z,1008.1
2018-07-24T11:31:27.874Z,1008
2018-07-24T11:41:42.853Z,1007.9
2018-07-24T11:51:58.556Z,1007.8
2018-07-24T12:02:13.653Z,1007.6
2018-07-24T12:12:29.322Z,1007.5
2018-07-24T12:22:43.948Z,1007.4
2018-07-24T12:32:58.422Z,1007.7
2018-07-24T12:43:12.735Z,1007.9
2018-07-24T12:53:27.521Z,1008.5
2018-07-24T13:03:43.346Z,1008.4
2018-07-24T13:13:59.046Z,1008.1
2018-07-24T13:24:14.254Z,1008.1
2018-07-24T13:34:28.988Z,1007.9
2018-07-24T13:44:45.023Z,1007.5
2018-07-24T13:54:59.686Z,1007.3
2018-07-24T14:05:14.367Z,1006.9
2018-07-24T14:15:28.705Z,1006.7
2018-07-24T14:25:42.891Z,1006.5
2018-07-24T14:35:57.722Z,1006.5
2018-07-24T14:46:13.174Z,1006.5
2018-07-24T14:56:27.821Z,1006.5
2018-07-24T15:06:42.079Z,1006.3
2018-07-24T15:16:56.083Z,1006.2
2018-07-24T15:27:11.162Z,1006.2
2018-07-24T15:37:25.493Z,1006.1
2018-07-24T15:47:40.591Z,1006.1
2018-07-24T15:57:54.696Z,1006
2018-07-24T16:08:08.933Z,1006
2018-07-24T16:18:22.930Z,1006
2018-07-24T16:28:38.647Z,1006
2018-07-24T16:38:53.123Z,1005.9
2018-07-24T16:49:07.677Z,1005.9
2018-07-24T16:59:23.300Z,1005.8
2018-07-24T17:09:37.502Z,1005.7
2018-07-24T17:19:53.436Z,1005.7
2018-07-24T17:30:07.220Z,1005.7
2018-07-24T17:40:21.605Z,1005.7
2018-07-24T17:50:36.606Z,1005.8
2018-07-24T18:00:50.912Z,1005.8
2018-07-24T18:11:05.003Z,1005.8
2018-07-24T18:21:20.888Z,1005.8
2018-07-24T18:31:36.227Z,1005.9
2018-07-24T18:41:51.658Z,1005.9
2018-07-24T18:52:06.824Z,1006
2018-07-24T19:02:22.458Z,1005.9
2018-07-24T19:12:38.229Z,1005.9
2018-07-24T19:22:52.475Z,1006
2018-07-24T19:33:08.013Z,1006.1
2018-07-24T19:43:23.669Z,1006.1
2018-07-24T19:53:38.853Z,1006.1
2018-07-24T20:03:53.829Z,1006.2
2018-07-24T20:14:09.047Z,1006.2
2018-07-24T20:24:23.874Z,1006.2
2018-07-24T20:34:37.868Z,1006.2
2018-07-24T20:44:52.353Z,1006.2
2018-07-24T20:55:07.051Z,1006.3
2018-07-24T21:05:21.229Z,1006.2
2018-07-24T21:15:36.081Z,1006.3
2018-07-24T21:25:50.847Z,1006.2
2018-07-24T21:36:05.045Z,1006.3
2018-07-24T21:46:19.902Z,1006.4
2018-07-24T21:56:35.480Z,1006.2
2018-07-24T22:06:50.798Z,1006.3
2018-07-24T22:17:05.096Z,1006.4
2018-07-24T22:27:20.636Z,1006.6
2018-07-24T22:37:35.106Z,1006.5
2018-07-24T22:47:49.363Z,1006.5
2018-07-24T22:58:04.275Z,1006.6
2018-07-24T23:08:20.142Z,1006.7
2018-07-24T23:18:35.669Z,1006.7
2018-07-24T23:28:49.673Z,1006.7
2018-07-24T23:39:04.386Z,1006.6
2018-07-24T23:49:19.041Z,1006.6
2018-07-24T23:59:33.796Z,1006.6
